Time;durP1;ratioP1;P1;durP2;ratioP2;P2;SDS_P1;SDS_P2;PMS_P1;PMS_P2;Temp;Humidity;BMP_temperature;BMP_pressure;BME280_temperature;BME280_humidity;BME280_pressure;Samples;Min_cycle;Max_cycle;Signal;HPM_P1;HPM_P2
2023/05/07 00:02:32;;;;;;;18.80;9.10;;;;;;;7.26;100.00;101178.38;215725;1285;138859;-88
2023/05/07 00:07:33;;;;;;;25.60;11.00;;;;;;;7.25;100.00;101178.64;216179;1284;138582;-87
2023/05/07 00:12:33;;;;;;;19.80;9.90;;;;;;;7.24;100.00;101181.52;215508;1284;138951;-89
2023/05/07 00:17:34;;;;;;;16.80;8.80;;;;;;;7.24;100.00;101182.93;216187;1287;138566;-88
2023/05/07 00:22:35;;;;;;;20.90;9.60;;;;;;;7.25;100.00;101183.36;215869;1284;138544;-86
2023/05/07 00:27:35;;;;;;;18.10;9.50;;;;;;;7.25;100.00;101178.96;218098;1283;110778;-87
2023/05/07 00:32:36;;;;;;;28.90;16.40;;;;;;;7.24;100.00;101180.58;218165;1283;139926;-87
2023/05/07 00:37:37;;;;;;;26.20;11.60;;;;;;;7.25;100.00;101179.99;216594;1284;139142;-86
2023/05/07 00:42:38;;;;;;;24.40;12.70;;;;;;;7.25;100.00;101185.80;214602;1286;139307;-87
2023/05/07 00:47:39;;;;;;;19.50;9.90;;;;;;;7.24;100.00;101189.13;215123;1283;139266;-88
2023/05/07 00:52:41;;;;;;;25.50;12.10;;;;;;;7.22;100.00;101194.96;214322;1287;208941;-86
2023/05/07 00:57:41;;;;;;;18.50;10.00;;;;;;;7.20;100.00;101196.99;215145;1287;109660;-86
2023/05/07 01:02:43;;;;;;;19.90;9.70;;;;;;;7.14;100.00;101197.23;214125;1287;138486;-87
2023/05/07 01:07:44;;;;;;;21.00;11.70;;;;;;;7.09;100.00;101196.46;214946;1285;138513;-87
2023/05/07 01:12:45;;;;;;;25.70;11.00;;;;;;;7.05;100.00;101192.13;214550;1284;140097;-88
2023/05/07 01:17:46;;;;;;;20.70;10.40;;;;;;;7.02;100.00;101191.15;215064;1284;138717;-86
2023/05/07 01:22:47;;;;;;;25.80;11.70;;;;;;;6.98;100.00;101191.80;214558;1284;139182;-87
2023/05/07 01:27:48;;;;;;;20.70;9.40;;;;;;;6.93;100.00;101198.79;215241;1283;138811;-87
2023/05/07 01:32:58;;;;;;;22.60;10.60;;;;;;;6.89;100.00;101200.53;215127;1283;138859;-90
2023/05/07 01:37:59;;;;;;;23.90;11.80;;;;;;;6.83;100.00;101204.13;215839;1287;138742;-87
2023/05/07 01:43:02;;;;;;;30.20;11.90;;;;;;;6.76;100.00;101198.70;215490;1284;141265;-86
2023/05/07 01:48:03;;;;;;;24.70;11.70;;;;;;;6.71;100.00;101209.84;216545;1283;138784;-86
2023/05/07 01:53:04;;;;;;;23.00;11.70;;;;;;;6.63;100.00;101214.93;215577;1284;138807;-88
2023/05/07 01:58:04;;;;;;;20.00;10.40;;;;;;;6.59;100.00;101212.71;216113;1283;138844;-86
2023/05/07 02:03:05;;;;;;;19.70;11.60;;;;;;;6.56;100.00;101213.30;215704;1283;138774;-87
2023/05/07 02:08:05;;;;;;;22.70;9.90;;;;;;;6.55;100.00;101206.45;217105;1283;138789;-88
2023/05/07 02:13:06;;;;;;;23.20;11.70;;;;;;;6.55;100.00;101208.84;218550;1283;139772;-87
2023/05/07 02:18:09;;;;;;;22.90;11.20;;;;;;;6.58;100.00;101216.13;217514;1283;138720;-87
2023/05/07 02:23:10;;;;;;;19.00;11.00;;;;;;;6.59;100.00;101216.53;214421;1284;139566;-89
2023/05/07 02:28:10;;;;;;;23.00;11.90;;;;;;;6.60;100.00;101222.95;215033;1284;139463;-87
2023/05/07 02:33:12;;;;;;;19.70;10.30;;;;;;;6.61;100.00;101227.11;214255;1283;138471;-86
2023/05/07 02:38:13;;;;;;;19.20;10.80;;;;;;;6.60;100.00;101231.21;214917;1284;138533;-87
2023/05/07 02:43:13;;;;;;;22.90;11.90;;;;;;;6.55;100.00;101230.85;214451;1284;138820;-86
2023/05/07 02:48:14;;;;;;;22.40;12.50;;;;;;;6.50;100.00;101226.19;214727;1287;138674;-88
2023/05/07 02:53:15;;;;;;;20.00;11.60;;;;;;;6.48;100.00;101224.23;214215;1283;139059;-88
2023/05/07 02:58:15;;;;;;;21.10;11.40;;;;;;;6.46;100.00;101222.98;214957;1283;138687;-88
2023/05/07 03:03:16;;;;;;;19.50;9.80;;;;;;;6.46;100.00;101221.59;214635;1283;138934;-88
2023/05/07 03:08:17;;;;;;;22.60;13.10;;;;;;;6.46;100.00;101229.70;215070;1284;138325;-87
2023/05/07 03:13:18;;;;;;;20.90;10.20;;;;;;;6.47;100.00;101236.14;214755;1283;139089;-88
2023/05/07 03:18:19;;;;;;;20.80;11.70;;;;;;;6.48;100.00;101243.52;216068;1284;139870;-88
2023/05/07 03:23:20;;;;;;;24.10;12.50;;;;;;;6.49;100.00;101246.70;215549;1284;139075;-87
2023/05/07 03:28:21;;;;;;;20.00;9.70;;;;;;;6.51;100.00;101252.11;215889;1284;138654;-88
2023/05/07 03:33:21;;;;;;;20.30;10.30;;;;;;;6.54;100.00;101261.52;215613;1284;138408;-86
2023/05/07 03:38:22;;;;;;;18.30;9.30;;;;;;;6.55;100.00;101259.68;215861;1283;139109;-88
2023/05/07 03:43:23;;;;;;;18.40;9.50;;;;;;;6.55;100.00;101262.12;215359;1283;138562;-88
2023/05/07 03:48:23;;;;;;;15.20;8.80;;;;;;;6.54;100.00;101262.07;215975;1285;139485;-88
2023/05/07 03:53:24;;;;;;;19.30;9.10;;;;;;;6.55;100.00;101260.86;217979;1283;138776;-89
2023/05/07 03:58:25;;;;;;;18.10;8.80;;;;;;;6.57;100.00;101259.94;218639;1283;138757;-88
2023/05/07 04:03:25;;;;;;;17.90;9.10;;;;;;;6.58;100.00;101269.02;215580;1284;138361;-89
2023/05/07 04:08:26;;;;;;;17.50;9.60;;;;;;;6.57;100.00;101282.19;215135;1286;138308;-88
2023/05/07 04:13:27;;;;;;;18.20;9.10;;;;;;;6.58;100.00;101292.09;214479;1285;138624;-88
2023/05/07 04:18:28;;;;;;;16.10;8.60;;;;;;;6.58;100.00;101292.80;214842;1284;138493;-89
2023/05/07 04:23:28;;;;;;;17.40;9.10;;;;;;;6.63;100.00;101290.88;213995;1286;504473;-89
2023/05/07 04:28:30;;;;;;;17.20;9.90;;;;;;;6.66;100.00;101294.11;215212;1284;138736;-90
2023/05/07 04:33:30;;;;;;;15.40;8.80;;;;;;;6.68;100.00;101311.19;214873;1284;138672;-88
2023/05/07 04:38:31;;;;;;;20.00;10.90;;;;;;;6.72;100.00;101314.55;215281;1283;138406;-89
2023/05/07 04:43:32;;;;;;;18.10;11.40;;;;;;;6.75;100.00;101310.34;214767;1287;138747;-88
2023/05/07 04:48:33;;;;;;;19.30;10.20;;;;;;;6.76;100.00;101316.65;214858;1287;138768;-88
2023/05/07 04:53:33;;;;;;;18.50;10.40;;;;;;;6.83;100.00;101322.95;214391;1284;139118;-88
2023/05/07 04:58:34;;;;;;;19.40;10.00;;;;;;;6.93;100.00;101323.45;215870;1284;138823;-90
2023/05/07 05:03:34;;;;;;;15.30;8.00;;;;;;;7.08;100.00;101334.04;215659;1287;138822;-90
2023/05/07 05:08:35;;;;;;;19.60;8.40;;;;;;;7.25;100.00;101339.96;216289;1285;138260;-89
2023/05/07 05:13:36;;;;;;;13.00;6.80;;;;;;;7.37;100.00;101342.21;215699;1284;139257;-90
2023/05/07 05:18:37;;;;;;;16.10;7.00;;;;;;;7.45;100.00;101343.06;216098;1283;139120;-88
2023/05/07 05:23:38;;;;;;;13.00;6.00;;;;;;;7.55;100.00;101338.92;215908;1284;139078;-87
2023/05/07 05:28:39;;;;;;;14.20;7.00;;;;;;;7.75;100.00;101348.04;216250;1283;138583;-90
2023/05/07 05:33:40;;;;;;;15.20;6.50;;;;;;;8.00;100.00;101353.68;216955;1284;139475;-93
2023/05/07 05:38:41;;;;;;;11.70;6.60;;;;;;;8.31;100.00;101364.41;218723;1283;138265;-91
2023/05/07 05:43:41;;;;;;;11.70;5.90;;;;;;;8.63;100.00;101364.92;217031;1284;138464;-89
2023/05/07 05:48:42;;;;;;;12.40;5.40;;;;;;;9.05;100.00;101366.54;215409;1285;138527;-88
2023/05/07 05:53:43;;;;;;;15.40;6.40;;;;;;;9.36;100.00;101367.30;214618;1284;138845;-90
2023/05/07 05:58:44;;;;;;;11.40;5.70;;;;;;;9.73;99.65;101366.45;215019;1284;139559;-89
2023/05/07 06:03:44;;;;;;;10.20;5.70;;;;;;;10.13;98.44;101366.62;214766;1284;138643;-88
2023/05/07 06:08:45;;;;;;;11.90;4.80;;;;;;;10.49;97.60;101372.57;214978;1287;138677;-88
2023/05/07 06:13:46;;;;;;;10.20;4.30;;;;;;;10.82;95.17;101374.05;214680;1284;138782;-87
2023/05/07 06:18:47;;;;;;;8.70;4.10;;;;;;;11.05;93.30;101382.86;215151;1284;139079;-91
2023/05/07 06:23:48;;;;;;;8.60;3.70;;;;;;;11.24;93.19;101378.22;214318;1285;140053;-91
2023/05/07 06:28:49;;;;;;;9.20;3.70;;;;;;;11.54;89.79;101379.30;214987;1285;138576;-90
2023/05/07 06:33:49;;;;;;;14.50;3.10;;;;;;;11.61;86.49;101376.35;214550;1283;138835;-90
2023/05/07 06:38:50;;;;;;;6.00;2.60;;;;;;;11.66;86.91;101375.58;215900;1287;97922;-89
2023/05/07 06:43:50;;;;;;;6.50;3.00;;;;;;;11.75;86.40;101379.02;215515;1284;138961;-90
2023/05/07 06:48:52;;;;;;;6.80;2.70;;;;;;;11.76;84.93;101388.73;216477;1285;138648;-89
2023/05/07 06:53:53;;;;;;;8.20;2.60;;;;;;;11.73;83.69;101390.63;215823;1284;138740;-93
2023/05/07 06:58:54;;;;;;;7.60;2.70;;;;;;;11.67;82.69;101390.91;216085;1283;138558;-89
2023/05/07 07:03:54;;;;;;;5.20;2.20;;;;;;;11.57;80.49;101391.43;216031;1284;139013;-90
2023/05/07 07:08:56;;;;;;;4.50;2.00;;;;;;;11.56;82.09;101396.84;216391;1284;96499;-90
2023/05/07 07:13:58;;;;;;;7.20;2.30;;;;;;;11.55;81.55;101398.71;216179;1284;138945;-93
2023/05/07 07:18:59;;;;;;;5.00;2.30;;;;;;;11.58;81.86;101399.65;218054;1283;138586;-93
2023/05/07 07:24:00;;;;;;;4.90;1.90;;;;;;;11.67;80.39;101404.93;218841;1283;138477;-88
2023/05/07 08:58:38;;;;;;;4.00;1.80;;;;;;;12.61;72.88;101480.14;217427;1285;138557;-88
2023/05/07 09:03:40;;;;;;;4.50;2.00;;;;;;;12.67;73.95;101480.42;217249;1285;138503;-89
2023/05/07 09:08:40;;;;;;;4.40;1.80;;;;;;;12.70;73.20;101485.52;217515;1285;138521;-87
2023/05/07 09:13:40;;;;;;;5.70;1.90;;;;;;;12.62;73.43;101486.81;216883;1288;139503;-86
2023/05/07 09:18:42;;;;;;;3.70;1.80;;;;;;;12.67;74.09;101490.36;217568;1284;138933;-89
2023/05/07 09:23:43;;;;;;;3.70;1.80;;;;;;;12.71;73.42;101488.63;217037;1284;139401;-87
2023/05/07 09:28:44;;;;;;;2.90;1.90;;;;;;;12.81;73.85;101482.89;217502;1285;139082;-91
2023/05/07 09:33:44;;;;;;;4.30;2.20;;;;;;;12.83;73.27;101488.21;216873;1285;139234;-91
2023/05/07 09:38:45;;;;;;;4.50;2.10;;;;;;;12.90;74.03;101489.55;217537;1285;139618;-90
2023/05/07 09:43:45;;;;;;;5.00;2.10;;;;;;;13.01;72.77;101491.98;217049;1285;139598;-87
2023/05/07 09:48:48;;;;;;;4.70;1.90;;;;;;;13.19;72.58;101489.00;217478;1284;139721;-86
2023/05/07 09:53:52;;;;;;;3.90;2.10;;;;;;;13.28;70.67;101495.14;216673;1285;138990;-86
2023/05/07 09:58:57;;;;;;;4.50;1.80;;;;;;;13.38;71.47;101497.60;217628;1285;138675;-91
2023/05/07 10:03:59;;;;;;;7.10;2.00;;;;;;;13.51;70.75;101501.86;217478;1285;137977;-86
2023/05/07 10:09:00;;;;;;;6.40;2.50;;;;;;;13.55;70.45;101503.50;217371;1286;140251;-87
2023/05/07 10:14:02;;;;;;;7.50;2.70;;;;;;;13.67;70.93;101508.43;217780;1285;139552;-90
2023/05/07 10:19:07;;;;;;;3.80;2.10;;;;;;;13.71;69.96;101509.13;217184;1288;139707;-90
2023/05/07 10:24:17;;;;;;;6.30;2.00;;;;;;;13.77;69.60;101505.83;217743;1286;138920;-87
2023/05/07 10:29:21;;;;;;;5.10;1.80;;;;;;;13.67;68.27;101506.60;217439;1284;140030;-87
2023/05/07 10:34:26;;;;;;;4.60;2.10;;;;;;;13.47;69.02;101515.70;218001;1286;96603;-93
2023/05/07 10:39:27;;;;;;;4.90;1.90;;;;;;;13.53;69.87;101519.12;217257;1288;138153;-91
2023/05/07 10:44:31;;;;;;;7.00;2.40;;;;;;;13.63;69.37;101519.98;217912;1286;138274;-87
2023/05/07 10:49:31;;;;;;;4.70;1.90;;;;;;;13.81;69.28;101521.39;217484;1286;138991;-86
2023/05/07 10:54:33;;;;;;;4.00;1.90;;;;;;;13.98;69.09;101519.19;217734;1288;138142;-92
2023/05/07 10:59:40;;;;;;;6.70;3.20;;;;;;;13.95;67.46;101522.14;217505;1284;138237;-90
2023/05/07 11:04:41;;;;;;;4.00;1.80;;;;;;;13.81;68.60;101526.92;217370;1288;139707;-91
2023/05/07 11:09:54;;;;;;;4.10;2.20;;;;;;;13.91;69.83;101522.48;217183;1286;140070;-90
2023/05/07 11:14:55;;;;;;;4.90;2.10;;;;;;;14.15;68.90;101527.42;217930;1286;137971;-92
2023/05/07 11:19:55;;;;;;;5.70;2.80;;;;;;;14.14;67.62;101536.58;217486;1286;139164;-92
2023/05/07 11:24:58;;;;;;;5.00;2.10;;;;;;;14.05;66.98;101535.73;218040;1286;137809;-90
2023/05/07 11:30:00;;;;;;;3.30;1.80;;;;;;;14.16;66.93;101532.05;217446;1285;138004;-89
2023/05/07 11:35:01;;;;;;;2.40;1.60;;;;;;;14.55;66.03;101533.86;217741;1286;138247;-87
2023/05/07 11:40:05;;;;;;;9.80;1.80;;;;;;;14.79;63.02;101524.41;217497;1284;138064;-91
2023/05/07 11:45:07;;;;;;;6.20;1.90;;;;;;;14.87;63.85;101523.39;217809;1284;138063;-91
2023/05/07 11:50:07;;;;;;;5.10;1.80;;;;;;;14.83;64.25;101529.11;217403;1287;138124;-93
2023/05/07 11:55:08;;;;;;;4.30;1.50;;;;;;;14.89;64.45;101528.32;218055;1286;137956;-92
2023/05/07 12:00:09;;;;;;;3.90;1.80;;;;;;;15.19;62.54;101527.59;217497;1285;138216;-93
2023/05/07 12:05:10;;;;;;;5.30;1.60;;;;;;;15.49;62.00;101523.95;217750;1284;137972;-92
2023/05/07 12:10:12;;;;;;;3.20;1.20;;;;;;;15.61;60.64;101529.74;217597;1284;138321;-91
2023/05/07 12:15:16;;;;;;;4.50;1.80;;;;;;;15.59;60.51;101525.77;217820;1285;137667;-87
2023/05/07 12:20:17;;;;;;;2.90;1.30;;;;;;;15.44;60.14;101529.38;217351;1285;139046;-90
2023/05/07 12:25:19;;;;;;;4.10;1.30;;;;;;;15.52;61.72;101531.42;217866;1287;138115;-90
2023/05/07 12:30:20;;;;;;;3.60;1.80;;;;;;;15.91;61.40;101526.58;217449;1284;138446;-89
2023/05/07 12:35:30;;;;;;;7.20;1.60;;;;;;;15.85;58.68;101535.97;217786;1285;137819;-91
2023/05/07 12:40:38;;;;;;;4.00;1.40;;;;;;;15.50;58.57;101538.06;217411;1288;138285;-88
2023/05/07 12:45:39;;;;;;;3.80;1.80;;;;;;;15.47;59.22;101542.23;217682;1286;109242;-88
2023/05/07 12:50:39;;;;;;;2.60;1.50;;;;;;;15.58;60.16;101538.46;217319;1284;138213;-90
2023/05/07 12:55:52;;;;;;;3.10;1.40;;;;;;;15.75;59.60;101539.95;218008;1286;137900;-92
2023/05/07 13:00:53;;;;;;;5.60;1.90;;;;;;;15.79;59.58;101542.90;217456;1286;139059;-93
2023/05/07 13:05:55;;;;;;;7.00;1.80;;;;;;;15.64;59.06;101543.17;217755;1286;138367;-94
2023/05/07 13:11:03;;;;;;;6.60;3.20;;;;;;;15.42;59.10;101547.98;217534;1285;139564;-90
2023/05/07 13:16:05;;;;;;;4.60;2.20;;;;;;;15.35;60.85;101547.77;218113;1286;96478;-90
2023/05/07 13:21:06;;;;;;;7.30;2.00;;;;;;;15.38;59.32;101549.20;217544;1284;137913;-88
2023/05/07 13:26:06;;;;;;;4.10;1.60;;;;;;;15.14;58.85;101546.56;218092;1286;137819;-89
2023/05/07 13:31:07;;;;;;;5.10;2.30;;;;;;;15.05;59.49;101545.67;217585;1286;138409;-93
2023/05/07 13:36:07;;;;;;;4.50;2.10;;;;;;;15.18;58.97;101548.42;218040;1286;137811;-91
2023/05/07 13:41:07;;;;;;;9.30;2.50;;;;;;;15.13;59.25;101543.87;217533;1286;138240;-94
2023/05/07 13:46:08;;;;;;;5.50;1.90;;;;;;;15.16;58.47;101544.21;218157;1285;96616;-90
2023/05/07 13:51:09;;;;;;;7.30;2.50;;;;;;;15.43;58.50;101541.56;217349;1284;139979;-92
2023/05/07 13:56:09;;;;;;;7.40;2.10;;;;;;;15.76;58.07;101540.02;217981;1286;137660;-93
2023/05/07 14:01:10;;;;;;;4.60;2.30;;;;;;;15.88;57.51;101539.79;217483;1286;138012;-90
2023/05/07 14:06:10;;;;;;;4.30;2.30;;;;;;;15.82;56.53;101546.34;217802;1286;138084;-95
2023/05/07 14:11:11;;;;;;;5.10;2.60;;;;;;;15.53;55.85;101542.21;217332;1287;138780;-94
2023/05/07 14:16:11;;;;;;;5.70;2.00;;;;;;;15.32;55.41;101537.10;218171;1285;96589;-91
2023/05/07 14:21:11;;;;;;;5.80;2.40;;;;;;;15.33;56.09;101524.27;217304;1288;138950;-92
2023/05/07 14:26:12;;;;;;;4.60;1.90;;;;;;;15.52;55.17;101515.80;218004;1286;138527;-93
2023/05/07 14:31:13;;;;;;;5.40;2.20;;;;;;;15.79;55.37;101516.66;217477;1286;139266;-88
2023/05/07 14:36:15;;;;;;;4.10;2.10;;;;;;;15.73;53.54;101520.17;217957;1285;138174;-92
2023/05/07 14:41:15;;;;;;;6.60;2.50;;;;;;;15.61;53.92;101525.71;217466;1286;138735;-88
2023/05/07 14:46:19;;;;;;;6.30;2.50;;;;;;;15.42;54.23;101533.55;218123;1288;96578;-93
2023/05/07 14:51:20;;;;;;;5.30;2.50;;;;;;;15.36;53.64;101538.64;217429;1286;138243;-90
2023/05/07 14:56:21;;;;;;;4.10;2.00;;;;;;;15.35;54.02;101533.08;217627;1286;139496;-93
2023/05/07 15:01:21;;;;;;;6.10;2.00;;;;;;;15.58;53.90;101537.10;217413;1285;138392;-92
2023/05/07 15:06:22;;;;;;;5.10;1.90;;;;;;;15.65;54.22;101541.13;217836;1286;138311;-92
2023/05/07 15:11:23;;;;;;;7.10;2.30;;;;;;;15.72;54.69;101545.95;217197;1288;138644;-89
2023/05/07 15:16:23;;;;;;;5.80;2.70;;;;;;;15.52;53.65;101552.13;218108;1286;96561;-90
2023/05/07 15:21:26;;;;;;;5.00;2.30;;;;;;;15.29;54.35;101550.92;217465;1287;138244;-91
2023/05/07 15:26:27;;;;;;;4.90;2.40;;;;;;;15.30;55.84;101549.02;217906;1286;139206;-90
2023/05/07 15:31:27;;;;;;;7.10;2.50;;;;;;;15.43;56.84;101545.62;217465;1286;138618;-88
2023/05/07 15:36:28;;;;;;;7.70;2.10;;;;;;;15.60;55.53;101543.46;217843;1286;137870;-90
2023/05/07 15:41:28;;;;;;;5.40;2.30;;;;;;;15.51;53.93;101546.33;217327;1286;138369;-87
2023/05/07 15:46:28;;;;;;;4.80;2.20;;;;;;;15.31;53.23;101551.59;217783;1286;97180;-92
2023/05/07 15:51:30;;;;;;;6.70;2.40;;;;;;;15.09;52.96;101552.38;217398;1285;138365;-88
2023/05/07 15:56:32;;;;;;;3.60;2.10;;;;;;;14.92;53.43;101545.85;217977;1286;137693;-90
2023/05/07 16:01:33;;;;;;;5.80;2.30;;;;;;;15.00;54.34;101545.88;217372;1287;138874;-94
2023/05/07 16:06:33;;;;;;;5.90;2.30;;;;;;;15.05;54.10;101554.30;217843;1286;138583;-91
2023/05/07 16:11:35;;;;;;;5.40;2.30;;;;;;;14.94;54.12;101554.27;217115;1286;138018;-89
2023/05/07 16:16:36;;;;;;;5.40;2.70;;;;;;;14.70;54.26;101552.95;217847;1286;139076;-89
2023/05/07 16:21:37;;;;;;;4.00;1.80;;;;;;;14.58;54.39;101557.79;216948;1286;361479;-87
2023/05/07 16:26:37;;;;;;;5.20;2.40;;;;;;;14.34;53.72;101551.61;217839;1288;139124;-92
2023/05/07 16:31:38;;;;;;;5.50;2.20;;;;;;;14.17;54.16;101549.94;217397;1286;138938;-87
2023/05/07 16:36:38;;;;;;;7.30;3.30;;;;;;;14.14;54.86;101549.08;217948;1285;139007;-90
2023/05/07 16:41:39;;;;;;;6.00;2.80;;;;;;;14.09;55.36;101550.11;217224;1288;138188;-90
2023/05/07 16:46:40;;;;;;;5.70;2.70;;;;;;;14.03;55.42;101560.70;217876;1288;137993;-89
2023/05/07 16:51:42;;;;;;;5.50;2.40;;;;;;;13.87;55.68;101562.52;217450;1286;138452;-89
2023/05/07 16:56:42;;;;;;;4.80;2.10;;;;;;;13.69;55.96;101565.38;217848;1286;137861;-91
2023/05/07 17:01:43;;;;;;;6.80;3.30;;;;;;;13.55;56.73;101568.15;217437;1286;138631;-87
2023/05/07 17:06:44;;;;;;;7.60;3.70;;;;;;;13.41;57.21;101569.96;217940;1286;138223;-90
2023/05/07 17:11:45;;;;;;;6.90;3.10;;;;;;;13.32;57.76;101573.73;217134;1286;140371;-88
2023/05/07 17:16:45;;;;;;;9.60;3.30;;;;;;;13.27;57.90;101572.92;217905;1286;138105;-89
2023/05/07 17:21:46;;;;;;;7.40;2.90;;;;;;;13.18;57.71;101572.30;217539;1286;138858;-88
2023/05/07 17:26:47;;;;;;;6.90;2.80;;;;;;;13.13;58.29;101578.69;217640;1288;138130;-88
2023/05/07 17:31:47;;;;;;;8.60;2.90;;;;;;;13.09;58.77;101583.76;217399;1286;139377;-88
2023/05/07 17:36:48;;;;;;;10.40;3.90;;;;;;;13.06;59.18;101585.09;217691;1286;138047;-88
2023/05/07 17:41:48;;;;;;;8.60;2.80;;;;;;;12.99;60.12;101586.15;217385;1288;138613;-87
2023/05/07 17:46:49;;;;;;;6.70;3.10;;;;;;;12.89;60.35;101591.52;217878;1286;138928;-88
2023/05/07 17:51:50;;;;;;;9.20;4.00;;;;;;;12.75;61.07;101592.97;217426;1286;138319;-91
2023/05/07 17:56:50;;;;;;;8.10;3.40;;;;;;;12.59;61.47;101596.02;217640;1286;138087;-90
2023/05/07 18:01:51;;;;;;;6.80;2.90;;;;;;;12.47;61.83;101599.07;217283;1286;140190;-91
2023/05/07 18:06:52;;;;;;;6.20;2.60;;;;;;;12.34;62.47;101598.94;217848;1286;139036;-90
2023/05/07 18:11:52;;;;;;;6.20;3.30;;;;;;;12.21;63.07;101599.44;216859;1288;138073;-92
2023/05/07 18:16:53;;;;;;;11.20;3.70;;;;;;;12.04;63.49;101605.01;217808;1288;138061;-90
2023/05/07 18:21:56;;;;;;;9.80;3.60;;;;;;;11.88;64.59;101608.73;217502;1286;138706;-89
2023/05/07 18:26:57;;;;;;;6.90;3.40;;;;;;;11.72;65.97;101612.34;217759;1288;137828;-90
2023/05/07 18:31:57;;;;;;;12.30;5.00;;;;;;;11.53;66.83;101618.23;216905;1286;138510;-90
2023/05/07 18:36:58;;;;;;;13.30;6.30;;;;;;;11.30;67.92;101629.64;217806;1286;138423;-87
2023/05/07 18:41:59;;;;;;;15.30;7.10;;;;;;;11.04;69.22;101633.38;217014;1286;138599;-87
2023/05/07 18:47:00;;;;;;;75.30;23.50;;;;;;;10.79;70.27;101635.13;217697;1288;138222;-88
2023/05/07 18:52:00;;;;;;;70.50;24.50;;;;;;;10.57;71.20;101638.61;217362;1288;138406;-89
2023/05/07 18:57:01;;;;;;;64.60;22.20;;;;;;;10.36;71.97;101638.13;217813;1286;138388;-89
2023/05/07 19:02:02;;;;;;;48.30;17.40;;;;;;;10.14;72.76;101640.09;217270;1288;139837;-89
2023/05/07 19:07:03;;;;;;;41.10;14.70;;;;;;;9.88;74.08;101643.60;217907;1288;138683;-89
2023/05/07 19:12:05;;;;;;;26.60;9.70;;;;;;;9.58;75.11;101652.09;217382;1286;138843;-89
2023/05/07 19:17:06;;;;;;;23.60;10.20;;;;;;;9.35;76.12;101663.05;217951;1288;138561;-90
2023/05/07 19:22:06;;;;;;;22.30;10.50;;;;;;;9.18;77.03;101669.59;217557;1288;138627;-90
2023/05/07 19:27:09;;;;;;;22.60;10.10;;;;;;;8.99;77.60;101671.13;217715;1284;137372;-90
2023/05/07 19:32:11;;;;;;;22.50;10.20;;;;;;;8.80;78.75;101671.83;216999;1286;139036;-90
2023/05/07 19:37:15;;;;;;;19.60;9.90;;;;;;;8.63;79.32;101678.16;217812;1285;139113;-87
2023/05/07 19:42:20;;;;;;;20.80;10.00;;;;;;;8.45;79.82;101684.34;217253;1288;139604;-90
2023/05/07 19:47:21;;;;;;;18.10;8.80;;;;;;;8.31;80.97;101691.56;217769;1289;139814;-90
2023/05/07 19:52:23;;;;;;;18.30;9.80;;;;;;;8.25;81.26;101702.05;217238;1289;139368;-89
2023/05/07 19:57:24;;;;;;;17.70;8.90;;;;;;;8.24;81.34;101705.83;217734;1288;138538;-90
2023/05/07 20:02:28;;;;;;;11.50;6.40;;;;;;;8.22;81.51;101701.27;217390;1288;138336;-86
2023/05/07 20:07:30;;;;;;;15.90;6.70;;;;;;;8.21;81.49;101707.12;217642;1285;139690;-87
2023/05/07 20:12:32;;;;;;;13.10;6.40;;;;;;;8.17;81.65;101711.52;217319;1288;138881;-90
2023/05/07 20:17:32;;;;;;;12.60;6.70;;;;;;;8.10;81.81;101717.60;217988;1286;138555;-89
2023/05/07 20:22:33;;;;;;;17.50;6.80;;;;;;;8.03;82.06;101721.60;217194;1289;138952;-87
2023/05/07 20:27:38;;;;;;;18.20;7.00;;;;;;;7.95;82.75;101728.85;218035;1286;97846;-88
2023/05/07 20:32:39;;;;;;;18.60;8.10;;;;;;;7.83;83.23;101734.17;217089;1285;138936;-89
2023/05/07 20:37:40;;;;;;;25.50;9.20;;;;;;;7.73;83.68;101741.34;217749;1286;139493;-88
2023/05/07 20:42:42;;;;;;;16.70;7.60;;;;;;;7.65;84.17;101743.77;217267;1286;139624;-88
2023/05/07 20:47:42;;;;;;;15.10;6.70;;;;;;;7.56;84.69;101747.61;217760;1286;139309;-88
2023/05/07 20:52:43;;;;;;;15.00;6.70;;;;;;;7.46;84.83;101752.66;217284;1286;139697;-90
2023/05/07 20:57:44;;;;;;;13.20;6.40;;;;;;;7.37;85.33;101752.80;218007;1286;97949;-90
2023/05/07 21:02:44;;;;;;;15.40;6.90;;;;;;;7.33;86.03;101758.23;217411;1286;139430;-89
2023/05/07 21:07:45;;;;;;;15.20;7.60;;;;;;;7.27;86.01;101765.88;217819;1288;138556;-90
2023/05/07 21:12:45;;;;;;;16.10;7.00;;;;;;;7.20;86.27;101768.08;217226;1286;138875;-90
2023/05/07 21:17:46;;;;;;;12.20;6.40;;;;;;;7.12;86.84;101769.00;217850;1286;139917;-90
2023/05/07 21:22:46;;;;;;;11.50;6.70;;;;;;;7.03;87.25;101768.29;217352;1284;138991;-89
2023/05/07 21:27:46;;;;;;;16.90;7.90;;;;;;;6.97;87.55;101775.55;217709;1286;97839;-89
2023/05/07 21:32:47;;;;;;;21.80;10.50;;;;;;;6.88;87.67;101780.25;217513;1284;138378;-88
2023/05/07 21:37:47;;;;;;;25.00;10.80;;;;;;;6.79;88.12;101787.77;217916;1286;138962;-88
2023/05/07 21:42:48;;;;;;;29.40;12.90;;;;;;;6.69;88.65;101787.52;217406;1286;139209;-88
2023/05/07 21:47:48;;;;;;;31.40;16.40;;;;;;;6.58;89.15;101792.08;217748;1288;139084;-89
2023/05/07 21:52:49;;;;;;;32.90;15.30;;;;;;;6.47;89.39;101792.78;217267;1285;138717;-88
2023/05/07 21:57:49;;;;;;;26.90;13.00;;;;;;;6.36;89.85;101795.13;217873;1285;97925;-86
2023/05/07 22:02:50;;;;;;;26.50;14.10;;;;;;;6.24;90.16;101800.48;217226;1285;138878;-86
2023/05/07 22:07:50;;;;;;;32.80;14.30;;;;;;;6.11;90.65;101802.14;217937;1285;138875;-86
2023/05/07 22:12:51;;;;;;;29.10;12.60;;;;;;;6.00;90.92;101809.44;217482;1286;139943;-89
2023/05/07 22:17:51;;;;;;;39.20;15.70;;;;;;;5.89;91.26;101810.44;217848;1284;139468;-89
2023/05/07 22:22:53;;;;;;;26.20;13.00;;;;;;;5.79;91.69;101809.65;217322;1284;139055;-89
2023/05/07 22:27:54;;;;;;;28.40;13.30;;;;;;;5.69;91.68;101810.48;217994;1286;97853;-90
2023/05/07 22:32:54;;;;;;;24.50;12.00;;;;;;;5.59;92.29;101812.80;217271;1285;139098;-89
2023/05/07 22:37:55;;;;;;;32.80;14.70;;;;;;;5.46;92.55;101814.86;217844;1286;138552;-88
2023/05/07 22:42:55;;;;;;;33.50;16.20;;;;;;;5.36;92.83;101810.25;217356;1285;139739;-88
2023/05/07 22:47:55;;;;;;;33.20;14.60;;;;;;;5.27;93.27;101808.42;217913;1286;139065;-88
2023/05/07 22:52:56;;;;;;;27.30;12.60;;;;;;;5.19;93.56;101808.90;217224;1286;139589;-89
2023/05/07 22:57:56;;;;;;;27.80;12.70;;;;;;;5.10;93.80;101808.41;217919;1288;97862;-90
2023/05/07 23:02:57;;;;;;;22.70;11.10;;;;;;;5.00;93.88;101808.11;217108;1286;138864;-90
2023/05/07 23:07:57;;;;;;;25.40;12.60;;;;;;;4.92;94.09;101802.58;217659;1284;139336;-90
2023/05/07 23:12:57;;;;;;;23.20;11.40;;;;;;;4.83;94.26;101801.41;217184;1287;139662;-89
2023/05/07 23:17:58;;;;;;;26.40;13.60;;;;;;;4.75;94.72;101800.77;217787;1284;139578;-90
2023/05/07 23:22:58;;;;;;;25.30;12.30;;;;;;;4.67;95.20;101807.09;217232;1286;139541;-88
2023/05/07 23:27:59;;;;;;;27.20;13.00;;;;;;;4.58;95.65;101809.02;218044;1286;110177;-89
2023/05/07 23:32:59;;;;;;;23.50;11.90;;;;;;;4.50;95.96;101808.80;217448;1286;138667;-89
2023/05/07 23:38:00;;;;;;;21.80;11.10;;;;;;;4.44;96.38;101809.20;217930;1286;138602;-90
2023/05/07 23:43:00;;;;;;;23.20;12.20;;;;;;;4.37;96.44;101808.17;217445;1286;138912;-89
2023/05/07 23:48:00;;;;;;;23.00;11.30;;;;;;;4.30;96.70;101807.45;218001;1288;139706;-89
2023/05/07 23:53:01;;;;;;;19.10;10.80;;;;;;;4.22;96.91;101805.68;217441;1286;139277;-90
2023/05/07 23:58:01;;;;;;;18.80;10.60;;;;;;;4.17;97.27;101803.02;217664;1286;97954;-89
